createdAt,value
2019-06-08T00:01:33.737Z,100471.45
2019-06-08T00:04:02.951Z,100471.45
2019-06-08T00:06:32.129Z,100466.44
2019-06-08T00:09:01.177Z,100474.73
2019-06-08T00:11:30.269Z,100474.73
2019-06-08T00:13:59.509Z,100452.06
2019-06-08T00:16:28.633Z,100462.41
2019-06-08T00:18:57.780Z,100462.41
2019-06-08T00:21:26.881Z,100457.63
2019-06-08T00:23:56.823Z,100457.63
2019-06-08T00:26:26.021Z,100458.64
2019-06-08T00:28:55.218Z,100458.63
2019-06-08T00:31:24.315Z,100450.23
2019-06-08T00:33:53.353Z,100460.52
2019-06-08T00:36:23.054Z,100465.84
2019-06-08T00:38:52.287Z,100466.66
2019-06-08T00:41:22.109Z,100471.45
2019-06-08T00:43:52.476Z,100471.45
2019-06-08T00:46:21.653Z,100466.39
2019-06-08T00:48:50.780Z,100469.43
2019-06-08T00:51:21.016Z,100473.66
2019-06-08T00:53:50.275Z,100473.66
2019-06-08T00:56:19.504Z,100475.95
2019-06-08T00:58:48.576Z,100475.95
2019-06-08T01:01:20.786Z,100472.23
2019-06-08T01:03:48.538Z,100478.89
2019-06-08T01:06:18.798Z,100479.94
2019-06-08T01:08:47.998Z,100479.94
2019-06-08T01:11:18.604Z,100405.54
2019-06-08T01:13:47.865Z,100501.21
2019-06-08T01:16:17.035Z,100494.09
2019-06-08T01:18:46.241Z,100500.16
2019-06-08T01:21:15.364Z,100500.16
2019-06-08T01:23:46.604Z,100503.55
2019-06-08T01:26:15.812Z,100516.55
2019-06-08T01:28:44.990Z,100498.41
2019-06-08T01:31:14.184Z,100505.89
2019-06-08T01:33:43.449Z,100505.89
2019-06-08T01:36:12.637Z,100513.48
2019-06-08T01:38:41.824Z,100514.53
2019-06-08T01:41:11.080Z,100522.14
2019-06-08T01:43:40.257Z,100527.66
2019-06-08T01:46:09.450Z,100531.05
2019-06-08T01:48:38.730Z,100533.98
2019-06-08T01:51:07.852Z,100520.27
2019-06-08T01:53:37.042Z,100521.33
2019-06-08T01:56:06.267Z,100521.33
2019-06-08T01:58:36.341Z,100544.63
2019-06-08T02:01:05.520Z,100541.00
2019-06-08T02:03:34.962Z,100549.06
2019-06-08T02:06:04.237Z,100538.19
2019-06-08T02:08:34.635Z,100551.64
2019-06-08T02:11:03.982Z,100556.08
2019-06-08T02:13:33.203Z,100544.88
2019-06-08T02:16:03.095Z,100541.24
2019-06-08T02:18:39.934Z,100538.91
2019-06-08T02:21:03.515Z,100557.72
2019-06-08T02:23:33.090Z,100549.07
2019-06-08T02:26:02.445Z,100559.94
2019-06-08T02:28:33.557Z,100563.56
2019-06-08T02:31:04.651Z,100546.51
2019-06-08T02:33:35.006Z,100550.73
2019-06-08T02:36:05.786Z,100542.78
2019-06-08T02:38:36.075Z,100553.28
2019-06-08T02:41:06.246Z,100555.17
2019-06-08T02:43:36.202Z,100545.81
2019-06-08T02:46:06.633Z,100563.56
2019-06-08T02:49:01.863Z,100554.34
2019-06-08T02:51:08.558Z,100561.95
2019-06-08T02:53:38.453Z,100552.95
2019-06-08T02:56:07.820Z,100553.98
2019-06-08T02:58:39.053Z,100572.09
2019-06-08T03:01:09.518Z,100561.36
2019-06-08T03:03:40.387Z,100559.13
2019-06-08T03:06:09.617Z,100553.98
2019-06-08T03:08:41.301Z,100561.36
2019-06-08T03:11:09.824Z,100566.63
2019-06-08T03:13:42.250Z,100563.23
2019-06-08T03:16:10.663Z,100568.00
2019-06-08T03:18:40.183Z,100575.59
2019-06-08T03:21:11.196Z,100567.43
2019-06-08T03:23:41.524Z,100575.97
2019-06-08T03:26:11.786Z,100575.97
2019-06-08T03:28:42.239Z,100578.75
2019-06-08T03:31:12.435Z,100571.51
2019-06-08T03:33:55.006Z,100579.32
2019-06-08T03:36:19.575Z,100584.92
2019-06-08T03:38:48.796Z,100581.44
2019-06-08T03:41:17.990Z,100581.06
2019-06-08T03:43:47.877Z,100588.77
2019-06-08T03:46:17.050Z,100586.20
2019-06-08T03:48:46.580Z,100583.76
2019-06-08T03:51:15.821Z,100580.86
2019-06-08T03:53:47.226Z,100588.90
2019-06-08T03:56:18.394Z,100592.87
2019-06-08T03:58:48.293Z,100588.32
2019-06-08T04:01:17.469Z,100592.77
2019-06-08T04:03:46.671Z,100596.47
2019-06-08T04:06:15.776Z,100614.81
2019-06-08T04:08:47.093Z,100607.32
2019-06-08T04:11:16.822Z,100613.74
2019-06-08T04:13:47.085Z,100621.45
2019-06-08T04:16:17.627Z,100619.77
2019-06-08T04:18:47.111Z,100628.85
2019-06-08T04:21:16.323Z,100635.52
2019-06-08T04:23:47.089Z,100640.73
2019-06-08T04:26:16.481Z,100643.97
2019-06-08T04:28:47.233Z,100643.97
2019-06-08T04:31:16.530Z,100649.19
2019-06-08T04:33:46.582Z,100653.54
2019-06-08T04:36:17.140Z,100655.07
2019-06-08T04:38:47.959Z,100655.53
2019-06-08T04:41:17.413Z,100669.06
2019-06-08T04:43:49.162Z,100669.06
2019-06-08T04:46:17.557Z,100674.94
2019-06-08T04:48:48.006Z,100678.63
2019-06-08T04:51:18.251Z,100689.72
2019-06-08T04:53:49.318Z,100689.72
2019-06-08T04:56:18.581Z,100693.92
2019-06-08T04:58:48.950Z,100704.77
2019-06-08T05:01:18.827Z,100710.81
2019-06-08T05:03:49.662Z,100710.81
2019-06-08T05:06:18.815Z,100699.16
2019-06-08T05:08:49.454Z,100702.63
2019-06-08T05:11:19.426Z,100704.91
2019-06-08T05:13:49.736Z,100692.79
2019-06-08T05:16:19.110Z,100703.88
2019-06-08T05:18:49.462Z,100703.88
2019-06-08T05:21:18.948Z,100706.38
2019-06-08T05:23:57.551Z,100718.75
2019-06-08T05:26:19.051Z,100713.18
2019-06-08T05:28:49.438Z,100717.86
2019-06-08T05:31:18.662Z,100714.21
2019-06-08T05:33:47.858Z,100714.21
2019-06-08T05:36:17.036Z,100720.22
2019-06-08T05:38:46.078Z,100724.52
2019-06-08T05:41:15.115Z,100729.28
2019-06-08T05:43:44.216Z,100735.87
2019-06-08T05:46:13.240Z,100732.66
2019-06-08T05:48:43.806Z,100734.03
2019-06-08T05:51:13.056Z,100749.53
2019-06-08T05:53:42.234Z,100743.83
2019-06-08T05:56:11.356Z,100743.83
2019-06-08T05:58:41.795Z,100748.56
2019-06-08T06:01:10.907Z,100782.17
2019-06-08T06:03:40.297Z,100772.42
2019-06-08T06:06:09.577Z,100767.60
2019-06-08T06:08:45.256Z,100780.28
2019-06-08T06:11:14.426Z,100773.05
2019-06-08T06:13:43.586Z,100788.34
2019-06-08T06:16:12.783Z,100791.00
2019-06-08T06:18:42.931Z,100785.46
2019-06-08T06:21:12.615Z,100785.46
2019-06-08T06:23:43.092Z,100803.56
2019-06-08T06:26:12.331Z,100816.80
2019-06-08T06:28:41.509Z,100812.95
2019-06-08T06:31:10.720Z,100811.98
2019-06-08T06:33:39.973Z,100811.98
2019-06-08T06:36:09.173Z,100832.49
2019-06-08T06:38:38.365Z,100832.49
2019-06-08T06:41:07.571Z,100832.45
2019-06-08T06:43:36.763Z,100843.30
2019-06-08T06:46:05.967Z,100848.77
2019-06-08T06:48:35.215Z,100852.66
2019-06-08T06:51:04.382Z,100850.10
2019-06-08T06:53:33.501Z,100829.09
2019-06-08T06:56:02.614Z,100865.27
2019-06-08T06:58:31.792Z,100866.79
2019-06-08T07:01:01.013Z,100880.09
2019-06-08T07:03:30.113Z,100876.45
2019-06-08T07:05:59.290Z,100885.90
2019-06-08T07:08:28.493Z,100882.88
2019-06-08T07:10:57.803Z,100882.88
2019-06-08T07:13:26.900Z,100897.77
2019-06-08T07:15:58.083Z,100897.77
2019-06-08T07:18:26.854Z,100896.20
2019-06-08T07:20:56.030Z,100904.41
2019-06-08T07:23:25.223Z,100904.41
2019-06-08T07:25:54.590Z,100909.22
2019-06-08T07:28:23.818Z,100905.34
2019-06-08T07:30:53.005Z,100917.98
2019-06-08T07:33:22.116Z,100923.72
2019-06-08T07:35:51.565Z,100921.00
2019-06-08T07:38:20.752Z,100934.68
2019-06-08T07:40:49.983Z,100932.97
2019-06-08T07:43:19.044Z,100932.97
2019-06-08T07:45:48.260Z,100932.83
2019-06-08T07:48:18.059Z,100913.48
2019-06-08T07:50:48.377Z,100913.48
2019-06-08T07:53:17.544Z,100927.08
2019-06-08T07:55:47.267Z,100945.23
2019-06-08T07:58:17.602Z,100925.34
2019-06-08T08:00:46.731Z,100936.20
2019-06-08T08:03:15.836Z,100936.20
2019-06-08T08:05:45.003Z,100938.58
2019-06-08T08:08:14.211Z,100935.56
2019-06-08T08:10:43.395Z,100935.56
2019-06-08T08:13:12.600Z,100929.00
2019-06-08T08:15:41.807Z,100946.84
2019-06-08T08:18:10.912Z,100946.84
2019-06-08T08:20:40.095Z,100954.09
2019-06-08T08:23:09.401Z,100949.23
2019-06-08T08:25:38.556Z,100941.27
2019-06-08T08:28:08.215Z,100949.91
2019-06-08T08:30:37.827Z,100949.91
2019-06-08T08:33:07.843Z,100950.88
2019-06-08T08:35:38.132Z,100952.58
2019-06-08T08:38:07.737Z,100967.41
2019-06-08T08:40:38.747Z,100959.47
2019-06-08T08:43:09.395Z,100979.13
2019-06-08T08:45:40.653Z,100960.59
2019-06-08T08:48:21.529Z,100969.55
2019-06-08T08:50:40.805Z,100969.55
2019-06-08T08:53:10.014Z,100993.86
2019-06-08T08:55:39.188Z,100987.20
2019-06-08T08:58:08.560Z,101013.19
2019-06-08T09:00:40.970Z,101026.17
2019-06-08T09:03:27.873Z,101014.34
2019-06-08T09:05:39.585Z,101022.98
2019-06-08T09:08:08.861Z,101013.09
2019-06-08T09:10:38.291Z,101013.09
2019-06-08T09:13:09.157Z,101009.48
2019-06-08T09:15:38.439Z,101015.72
2019-06-08T09:18:08.084Z,101015.72
2019-06-08T09:20:38.064Z,101034.22
2019-06-08T09:23:14.922Z,101034.22
2019-06-08T09:25:40.644Z,101032.86
2019-06-08T09:28:09.315Z,101042.41
2019-06-08T09:30:38.652Z,101042.41
2019-06-08T09:33:08.035Z,101076.12
2019-06-08T09:35:38.586Z,101072.20
2019-06-08T09:38:10.499Z,101081.90
2019-06-08T09:40:38.796Z,101086.20
2019-06-08T09:43:12.456Z,101086.07
2019-06-08T09:45:38.957Z,101083.32
2019-06-08T09:48:09.293Z,101105.77
2019-06-08T09:50:38.835Z,101082.66
2019-06-08T09:53:23.306Z,101096.89
2019-06-08T09:55:41.374Z,101107.63
2019-06-08T09:58:11.844Z,101098.44
2019-06-08T10:00:41.016Z,101098.44
2019-06-08T10:03:10.136Z,101103.68
2019-06-08T10:05:39.337Z,101107.38
2019-06-08T10:08:09.458Z,101128.56
2019-06-08T10:10:38.849Z,101098.64
2019-06-08T10:13:09.686Z,101127.17
2019-06-08T10:15:38.979Z,101142.18
2019-06-08T10:18:08.377Z,101129.64
2019-06-08T10:20:38.462Z,101148.41
2019-06-08T10:23:26.892Z,101143.36
2019-06-08T10:25:38.659Z,101136.67
2019-06-08T10:28:13.677Z,101145.50
2019-06-08T10:30:38.798Z,101161.87
2019-06-08T10:33:10.138Z,101161.87
2019-06-08T10:35:39.461Z,101168.70
2019-06-08T10:38:11.825Z,101179.84
2019-06-08T10:41:00.342Z,101181.34
2019-06-08T10:43:29.722Z,101173.86
2019-06-08T10:46:03.076Z,101179.81
2019-06-08T10:48:30.171Z,101179.81
2019-06-08T10:51:02.286Z,101210.30
2019-06-08T10:53:45.191Z,101206.34
2019-06-08T10:56:01.806Z,101223.81
2019-06-08T10:58:32.334Z,101223.81
2019-06-08T11:01:04.160Z,101227.80
2019-06-08T11:03:32.503Z,101231.27
2019-06-08T11:06:03.286Z,101232.05
2019-06-08T11:08:32.641Z,101234.22
2019-06-08T11:11:02.902Z,101234.22
2019-06-08T11:13:32.863Z,101236.12
2019-06-08T11:16:02.832Z,101250.41
2019-06-08T11:18:32.960Z,101250.41
2019-06-08T11:21:03.570Z,101248.54
2019-06-08T11:23:33.275Z,101253.84
2019-06-08T11:26:04.581Z,101253.84
2019-06-08T11:28:33.250Z,101260.61
2019-06-08T11:31:03.862Z,101279.39
2019-06-08T11:33:33.139Z,101286.83
2019-06-08T11:36:05.785Z,101281.05
2019-06-08T11:38:33.218Z,101293.25
2019-06-08T11:41:04.642Z,101295.80
2019-06-08T11:43:33.281Z,101304.86
2019-06-08T11:46:02.642Z,101307.19
2019-06-08T11:48:32.051Z,101304.44
2019-06-08T11:51:02.574Z,101297.19
2019-06-08T11:53:31.785Z,101294.95
2019-06-08T11:56:03.277Z,101294.95
2019-06-08T11:58:32.811Z,101298.62
2019-06-08T12:01:05.508Z,101303.31
2019-06-08T12:03:35.319Z,101314.81
2019-06-08T12:06:04.658Z,101311.04
2019-06-08T12:08:34.119Z,101338.43
2019-06-08T12:11:04.274Z,101338.43
2019-06-08T12:13:34.301Z,101329.02
2019-06-08T12:16:03.491Z,101319.39
2019-06-08T12:18:32.599Z,101271.09
2019-06-08T12:21:01.775Z,101315.88
2019-06-08T12:23:30.897Z,101315.45
2019-06-08T12:26:00.021Z,101317.80
2019-06-08T12:28:29.136Z,101322.53
2019-06-08T12:31:01.001Z,101321.93
2019-06-08T12:33:30.758Z,101321.93
2019-06-08T12:36:00.068Z,101317.42
2019-06-08T12:38:33.545Z,101328.91
2019-06-08T12:41:00.061Z,101332.98
2019-06-08T12:43:29.280Z,101331.48
2019-06-08T12:45:58.383Z,101330.37
2019-06-08T12:48:28.718Z,101317.97
2019-06-08T12:50:58.091Z,101336.91
2019-06-08T12:53:28.312Z,101329.79
2019-06-08T12:55:58.039Z,101347.92
2019-06-08T12:58:27.640Z,101347.92
2019-06-08T13:00:57.970Z,101331.41
2019-06-08T13:03:29.583Z,101337.67
2019-06-08T13:05:58.323Z,101341.78
2019-06-08T13:08:28.798Z,101351.71
2019-06-08T13:11:00.405Z,101342.20
2019-06-08T13:13:29.005Z,101348.45
2019-06-08T13:15:58.132Z,101349.39
2019-06-08T13:18:27.200Z,101342.30
2019-06-08T13:20:59.002Z,101342.30
2019-06-08T13:23:28.289Z,101352.20
2019-06-08T13:25:57.815Z,101355.19
2019-06-08T13:28:30.647Z,101359.45
2019-06-08T13:30:59.828Z,101351.30
2019-06-08T13:33:28.849Z,101343.34
2019-06-08T13:35:58.203Z,101352.71
2019-06-08T13:38:27.870Z,101348.03
2019-06-08T13:40:58.915Z,101356.09
2019-06-08T13:43:28.260Z,101355.58
2019-06-08T13:45:58.354Z,101361.59
2019-06-08T13:48:27.697Z,101358.49
2019-06-08T13:50:59.036Z,101362.05
2019-06-08T13:53:31.636Z,101359.16
2019-06-08T13:55:58.692Z,101359.16
2019-06-08T13:58:33.168Z,101419.37
2019-06-08T14:00:59.811Z,101441.00
2019-06-08T14:03:29.270Z,101418.25
2019-06-08T14:05:58.480Z,101420.30
2019-06-08T14:08:32.711Z,101420.30
2019-06-08T14:11:00.803Z,101411.59
2019-06-08T14:13:34.090Z,101419.13
2019-06-08T14:16:00.426Z,101407.68
2019-06-08T14:18:33.899Z,101433.30
2019-06-08T14:21:00.352Z,101425.30
2019-06-08T14:23:29.488Z,101427.75
2019-06-08T14:26:00.165Z,101424.53
2019-06-08T14:28:30.326Z,101423.78
2019-06-08T14:30:59.647Z,101430.44
2019-06-08T14:33:32.094Z,101438.54
2019-06-08T14:35:59.768Z,101435.70
2019-06-08T14:38:38.229Z,101435.70
2019-06-08T14:41:00.198Z,101438.16
2019-06-08T14:43:31.065Z,101438.16
2019-06-08T14:46:00.221Z,101432.17
2019-06-08T14:48:33.220Z,101430.50
2019-06-08T14:51:00.141Z,101447.90
2019-06-08T14:53:29.164Z,101413.16
2019-06-08T14:56:05.737Z,101447.61
2019-06-08T14:58:33.599Z,101447.61
2019-06-08T15:01:00.138Z,101451.84
2019-06-08T15:03:29.468Z,101448.14
2019-06-08T15:05:58.667Z,101448.84
2019-06-08T15:08:28.602Z,101466.20
2019-06-08T15:10:58.758Z,101466.20
2019-06-08T15:13:28.617Z,101466.91
2019-06-08T15:16:00.694Z,101483.39
2019-06-08T15:18:30.497Z,101486.05
2019-06-08T15:21:00.648Z,101481.29
2019-06-08T15:23:32.409Z,101482.66
2019-06-08T15:26:00.911Z,101483.45
2019-06-08T15:28:35.479Z,101465.37
2019-06-08T15:31:01.001Z,101474.53
2019-06-08T15:33:33.038Z,101478.59
2019-06-08T15:36:01.169Z,101477.16
2019-06-08T15:38:33.156Z,101494.91
2019-06-08T15:41:01.228Z,101488.98
2019-06-08T15:43:35.272Z,101486.44
2019-06-08T15:46:01.367Z,101493.84
2019-06-08T15:48:32.245Z,101493.84
2019-06-08T15:51:01.449Z,101492.05
2019-06-08T15:53:32.403Z,101486.75
2019-06-08T15:56:01.226Z,101502.17
2019-06-08T15:58:32.523Z,101492.75
2019-06-08T16:01:01.184Z,101503.72
2019-06-08T16:03:31.347Z,101505.25
2019-06-08T16:06:00.561Z,101515.68
2019-06-08T16:08:30.279Z,101504.52
2019-06-08T16:10:59.432Z,101517.20
2019-06-08T16:13:28.670Z,101517.89
2019-06-08T16:15:57.797Z,101517.89
2019-06-08T16:18:27.402Z,101524.13
2019-06-08T16:20:56.640Z,101529.64
2019-06-08T16:23:25.816Z,101528.79
2019-06-08T16:25:54.841Z,101528.79
2019-06-08T16:28:24.037Z,101538.25
2019-06-08T16:30:53.144Z,101537.05
2019-06-08T16:33:22.325Z,101538.82
2019-06-08T16:35:51.359Z,101542.34
2019-06-08T16:38:20.541Z,101550.59
2019-06-08T16:40:49.724Z,101541.66
2019-06-08T16:43:18.931Z,101561.68
2019-06-08T16:45:48.112Z,101528.10
2019-06-08T16:48:17.403Z,101528.10
2019-06-08T16:50:46.611Z,101546.93
2019-06-08T16:53:15.794Z,101546.93
2019-06-08T16:55:44.970Z,101569.70
2019-06-08T16:58:14.063Z,101571.31
2019-06-08T17:00:43.390Z,101566.51
2019-06-08T17:03:12.597Z,101581.06
2019-06-08T17:05:42.028Z,101581.06
2019-06-08T17:08:11.664Z,101591.45
2019-06-08T17:10:43.665Z,101595.48
2019-06-08T17:13:12.897Z,101601.05
2019-06-08T17:15:42.512Z,101603.29
2019-06-08T17:18:11.624Z,101601.44
2019-06-08T17:20:40.807Z,101615.70
2019-06-08T17:23:09.987Z,101615.70
2019-06-08T17:25:39.224Z,101600.02
2019-06-08T17:28:08.549Z,101610.00
2019-06-08T17:30:39.254Z,101619.44
2019-06-08T17:33:08.682Z,101627.64
2019-06-08T17:35:37.802Z,101628.28
2019-06-08T17:38:06.991Z,101630.97
2019-06-08T17:40:36.174Z,101625.11
2019-06-08T17:43:05.379Z,101625.94
2019-06-08T17:45:34.615Z,101631.05
2019-06-08T17:48:03.805Z,101642.57
2019-06-08T17:50:33.007Z,101636.27
2019-06-08T17:53:02.189Z,101633.46
2019-06-08T17:55:31.402Z,101633.46
2019-06-08T17:58:00.683Z,101640.45
2019-06-08T18:00:29.940Z,101635.58
2019-06-08T18:03:00.680Z,101640.37
2019-06-08T18:05:30.063Z,101640.37
2019-06-08T18:07:59.255Z,101636.73
2019-06-08T18:10:28.639Z,101651.11
2019-06-08T18:12:58.754Z,101659.36
2019-06-08T18:15:28.510Z,101659.36
2019-06-08T18:17:57.825Z,101663.63
2019-06-08T18:20:28.275Z,101668.91
2019-06-08T18:22:57.946Z,101663.02
2019-06-08T18:25:27.932Z,101675.75
2019-06-08T18:28:07.057Z,101669.00
2019-06-08T18:30:28.197Z,101667.00
2019-06-08T18:32:58.075Z,101680.16
2019-06-08T18:35:27.871Z,101685.08
2019-06-08T18:37:57.820Z,101684.28
2019-06-08T18:40:27.764Z,101684.28
2019-06-08T18:42:57.859Z,101686.00
2019-06-08T18:45:27.681Z,101685.92
2019-06-08T18:47:57.770Z,101698.56
2019-06-08T18:50:28.523Z,101690.16
2019-06-08T18:52:58.110Z,101691.69
2019-06-08T18:55:27.930Z,101693.91
2019-06-08T18:57:57.333Z,101697.77
2019-06-08T19:00:40.028Z,101704.73
2019-06-08T19:03:09.402Z,101694.92
2019-06-08T19:05:42.564Z,101704.72
2019-06-08T19:08:12.154Z,101703.73
2019-06-08T19:10:42.747Z,101703.73
2019-06-08T19:13:12.323Z,101714.03
2019-06-08T19:15:44.470Z,101711.09
2019-06-08T19:18:12.484Z,101711.09
2019-06-08T19:20:45.651Z,101713.98
2019-06-08T19:23:12.587Z,101721.22
2019-06-08T19:25:45.166Z,101721.22
2019-06-08T19:28:12.634Z,101731.34
2019-06-08T19:30:44.371Z,101734.30
2019-06-08T19:33:12.734Z,101746.86
2019-06-08T19:35:42.370Z,101747.41
2019-06-08T19:38:11.672Z,101755.95
2019-06-08T19:40:42.529Z,101755.95
2019-06-08T19:43:11.825Z,101765.13
2019-06-08T19:45:42.412Z,101767.53
2019-06-08T19:48:11.835Z,101762.74
2019-06-08T19:50:41.374Z,101762.74
2019-06-08T19:53:10.908Z,101780.39
2019-06-08T19:55:41.160Z,101777.70
2019-06-08T19:58:10.453Z,101777.70
2019-06-08T20:00:40.584Z,101792.83
2019-06-08T20:03:10.495Z,101798.89
2019-06-08T20:05:41.153Z,101792.28
2019-06-08T20:08:10.659Z,101803.77
2019-06-08T20:10:41.008Z,101804.55
2019-06-08T20:13:10.462Z,101813.74
2019-06-08T20:15:43.350Z,101818.62
2019-06-08T20:18:10.520Z,101827.39
2019-06-08T20:20:39.636Z,101832.92
2019-06-08T20:23:09.781Z,101839.50
2019-06-08T20:25:39.028Z,101839.50
2019-06-08T20:28:08.184Z,101838.28
2019-06-08T20:30:37.371Z,101844.70
2019-06-08T20:33:08.188Z,101851.42
2019-06-08T20:35:37.795Z,101853.11
2019-06-08T20:38:08.322Z,101852.03
2019-06-08T20:40:38.386Z,101848.53
2019-06-08T20:43:07.705Z,101853.91
2019-06-08T20:45:37.567Z,101865.36
2019-06-08T20:48:07.163Z,101853.60
2019-06-08T20:50:37.852Z,101857.41
2019-06-08T20:53:08.442Z,101857.41
2019-06-08T20:55:40.536Z,101873.70
2019-06-08T20:58:08.803Z,101873.70
2019-06-08T21:00:37.987Z,101870.78
2019-06-08T21:03:08.258Z,101870.97
2019-06-08T21:05:37.623Z,101869.74
2019-06-08T21:08:08.405Z,101872.10
2019-06-08T21:10:38.025Z,101875.68
2019-06-08T21:13:07.499Z,101869.53
2019-06-08T21:15:38.218Z,101876.25
2019-06-08T21:18:08.012Z,101879.59
2019-06-08T21:20:37.801Z,101879.59
2019-06-08T21:23:08.106Z,101888.91
2019-06-08T21:25:37.546Z,101888.91
2019-06-08T21:28:07.755Z,101893.38
2019-06-08T21:30:37.765Z,101900.78
2019-06-08T21:33:08.210Z,101899.73
2019-06-08T21:35:37.614Z,101899.73
2019-06-08T21:38:20.451Z,101900.41
2019-06-08T21:40:37.826Z,101900.41
2019-06-08T21:43:08.151Z,101902.00
2019-06-08T21:45:38.061Z,101903.64
2019-06-08T21:48:07.629Z,101903.64
2019-06-08T21:50:37.249Z,101902.59
2019-06-08T21:53:07.766Z,101902.59
2019-06-08T21:55:38.092Z,101907.67
2019-06-08T21:58:08.091Z,101910.51
2019-06-08T22:00:42.937Z,101906.61
2019-06-08T22:03:08.390Z,101909.45
2019-06-08T22:05:37.836Z,101909.45
2019-06-08T22:08:08.043Z,101911.96
2019-06-08T22:10:37.771Z,101914.88
2019-06-08T22:13:08.701Z,101914.66
2019-06-08T22:15:38.175Z,101917.75
2019-06-08T22:18:08.088Z,101921.59
2019-06-08T22:20:38.298Z,101924.48
2019-06-08T22:23:07.670Z,101930.88
2019-06-08T22:25:38.734Z,101928.77
2019-06-08T22:28:07.777Z,101936.20
2019-06-08T22:30:42.764Z,101932.66
2019-06-08T22:33:07.806Z,101933.59
2019-06-08T22:35:37.463Z,101931.11
2019-06-08T22:38:08.370Z,101933.59
2019-06-08T22:40:37.562Z,101937.75
2019-06-08T22:43:08.069Z,101942.64
2019-06-08T22:45:37.640Z,101936.37
2019-06-08T22:48:08.243Z,101942.66
2019-06-08T22:50:38.261Z,101942.66
2019-06-08T22:53:08.121Z,101942.85
2019-06-08T22:55:38.231Z,101942.85
2019-06-08T22:58:07.884Z,101942.85
2019-06-08T23:00:51.413Z,101943.84
2019-06-08T23:03:08.514Z,101947.45
2019-06-08T23:05:38.224Z,101947.45
2019-06-08T23:08:09.511Z,101955.73
2019-06-08T23:10:38.395Z,101955.53
2019-06-08T23:13:08.517Z,101955.53
2019-06-08T23:15:37.955Z,101954.84
2019-06-08T23:18:09.391Z,101953.41
2019-06-08T23:20:38.113Z,101959.05
2019-06-08T23:23:08.965Z,101955.73
2019-06-08T23:25:38.283Z,101960.64
2019-06-08T23:28:09.537Z,101961.33
2019-06-08T23:30:38.490Z,101968.13
2019-06-08T23:33:11.385Z,101963.69
2019-06-08T23:36:03.019Z,101965.45
2019-06-08T23:38:09.616Z,101965.45
2019-06-08T23:40:38.781Z,101975.38
2019-06-08T23:43:08.354Z,101964.09
2019-06-08T23:45:38.125Z,101972.00
2019-06-08T23:48:08.614Z,101968.48
2019-06-08T23:50:38.082Z,101967.77
2019-06-08T23:53:10.502Z,101968.69
2019-06-08T23:55:38.293Z,101967.69
2019-06-08T23:58:09.922Z,101968.14
